Alvord, TX

12:34 AM CDT on October 31, 2014 (GMT -0500)
2 Miles South of Alvord | Change Station
CLOSE
Current Station
Personal Weather Station
Location: Alvord, TX
Elevation: 853 ft
Nearby Weather Stations

Elev 853 ft 33.33 °N, 97.70 °W | Updated 14 minutes ago

Clear
Clear
49.5 °F
Feels Like 50 °F
N
0.0
Wind Variable Wind from WNW

Today
High -- | Low -- °F
--% Chance of Precip.
Yesterday
High -- | Low -- °F
Precip. -- in
7:48 AM 6:39 PM
First Quarter, 51% visible
Pressure 30.21 in
Visibility 10.0 miles
Clouds Clear
Windchill 50 °F
Dew Point 49 °F
Humidity 98%
Rainfall 0.00 in
Snow Depth Not available.
UV 0 out of 12
Pollen 3.70 out of 12
Air Quality Not available.
Flu Activity Not available.
METAR KLUD 310515Z AUTO 35004KT 10SM CLR 16/04 A3021 RMK AO2 T01600036

More Conditions Fewer Conditions

Pressure 30.21 in
Visibility 10.0 miles
Clouds Clear
Windchill 50 °F
Dew Point 49 °F
Humidity 98%
Rainfall 0.00 in
Snow Depth Not available.
UV 0 out of 12
Pollen 3.70 out of 12
Air Quality Not available.
Flu Activity Not available.
METAR KLUD 310515Z AUTO 35004KT 10SM CLR 16/04 A3021 RMK AO2 T01600036

More Conditions Fewer Conditions

Nowcast | as of 11:43 PM CDT on October 30, 2014

Scattered areas of light to moderate rain continue south of a line from Comanche to Waco tonight. This rain is moving south at about 30 mph. Rainfall accumulations up to a tenth of an inch can be expected through 2 am. Otherwise...a cold front will continue to slowly move south across the region. Expect clearing skies...lowering dew points...and north winds at 5-10 mph behind the front.

×

10-Day Weather Forecast

Almanac

Astronomy

Oct. 31, 2014 Rise Set
Actual Time
Civil Twilight
Nautical Twilight
Astronomical Twilight
Moon
Length of Visible Light
Length of Day
Tomorrow will be .
, % of the Moon is Illuminated

Today's Extremes

State Highs State Lows

Community

WunderPhotos

Upload Photos

1,766,569 photos uploaded!

WunderBlogs® & News

Nearby

Air Quality

  Air Quality AQ Index Pollutant
Not available.

Snow Depth

Station Depth Elevation

Earthquake Activity

City Distance Mag. Time & Date
Minimum magnitude displayed is 2.5.

Coastal Water Temperatures

Place Temperature

Nearby Weather Stations